Terminal Aerodrome Forecast
Issued by NWS Wakefield, VA

Home | Current Version | Previous Version | Text Only | Print | Product List | Glossary On
Versions: 1 2 3 4 5 6 7 8 9 10 11 12 13 14
070
FTUS41 KAKQ 271120
TAFRIC
TAF
KRIC 271120Z 2712/2812 19006KT P6SM BKN050
      TEMPO 2712/2714 -SHRA
     FM271800 22009KT P6SM SCT080
     FM280100 19006KT P6SM BKN200
     FM280800 20006KT P6SM BKN030
     FM281000 20005KT P6SM BKN015=

USA.gov is the U.S. government's official web portal to all federal, state and local government web resources and services.